Oxford, Connecticut
Current Conditions -  °F | °C
As of 8:55 AM on Thursday 27 Nov 2014 (Local Time) from KOXC Reporting Station
Overcast Overcast  
Wind Chill: 24°   Ceiling: 7000
Heat Index: 30°   Visibility: 10mi
Dew Point: 23°   Wind: 6mph
Humidity: 75%   Direction: 310°NW
Pressure: 29.97"   Gusts: NA
Location:  41.42°N, 73.13°W
Report Text: KOXC 271355Z COR 31005KT 10SM SCT020 BKN070 OVC085 M01/M05 A2997
Loading
Personal Weather Stations






























Interactive Weather Map New forecast layout! Learn more

10-Day Weather Forecast

Advertisements
Track Severe Weather on mobile